createdAt,value
2024-02-13T00:00:27.068Z,0.00
2024-02-13T00:01:27.145Z,0.00
2024-02-13T00:02:27.100Z,0.00
2024-02-13T00:03:27.101Z,0.00
2024-02-13T00:04:27.173Z,0.00
2024-02-13T00:05:27.094Z,0.00
2024-02-13T00:06:27.026Z,0.00
2024-02-13T00:07:27.078Z,0.00
2024-02-13T00:08:33.280Z,0.00
2024-02-13T00:09:27.008Z,0.00
2024-02-13T00:10:27.054Z,0.00
2024-02-13T00:11:27.054Z,0.00
2024-02-13T00:12:26.997Z,0.00
2024-02-13T00:13:26.983Z,0.00
2024-02-13T00:14:27.038Z,0.00
2024-02-13T00:15:26.978Z,0.00
2024-02-13T00:16:27.059Z,0.00
2024-02-13T00:17:26.958Z,0.00
2024-02-13T00:18:27.030Z,0.00
2024-02-13T00:19:26.945Z,0.00
2024-02-13T00:20:26.893Z,0.00
2024-02-13T00:21:26.924Z,0.00
2024-02-13T00:22:26.973Z,0.00
2024-02-13T00:23:26.896Z,0.00
2024-02-13T00:24:26.913Z,0.00
2024-02-13T00:25:26.854Z,0.00
2024-02-13T00:26:26.888Z,0.00
2024-02-13T00:27:26.848Z,0.00
2024-02-13T00:28:26.921Z,0.00
2024-02-13T00:29:26.901Z,0.00
2024-02-13T00:30:26.915Z,0.00
2024-02-13T00:31:26.785Z,0.00
2024-02-13T00:32:26.900Z,0.00
2024-02-13T00:33:26.854Z,0.00
2024-02-13T00:34:26.972Z,0.00
2024-02-13T00:35:26.798Z,0.00
2024-02-13T00:36:26.781Z,0.00
2024-02-13T00:37:26.821Z,0.00
2024-02-13T00:38:26.771Z,0.00
2024-02-13T00:39:26.713Z,0.00
2024-02-13T00:40:26.825Z,0.00
2024-02-13T00:41:26.738Z,0.00
2024-02-13T00:42:26.732Z,0.00
2024-02-13T00:43:26.691Z,0.00
2024-02-13T00:44:26.782Z,0.00
2024-02-13T00:45:26.707Z,0.00
2024-02-13T00:46:26.742Z,0.00
2024-02-13T00:47:26.724Z,0.00
2024-02-13T00:48:26.719Z,0.00
2024-02-13T00:49:26.708Z,0.00
2024-02-13T00:50:26.711Z,0.00
2024-02-13T00:51:26.627Z,0.00
2024-02-13T00:52:26.735Z,0.00
2024-02-13T00:53:26.616Z,0.00
2024-02-13T00:54:26.649Z,0.00
2024-02-13T00:55:26.554Z,0.00
2024-02-13T00:56:26.647Z,0.00
2024-02-13T00:57:26.610Z,0.00
2024-02-13T00:58:26.668Z,0.00
2024-02-13T00:59:26.780Z,0.00
2024-02-13T01:00:26.528Z,0.00
2024-02-13T01:01:26.548Z,0.00
2024-02-13T01:02:26.585Z,0.00
2024-02-13T01:03:26.535Z,0.00
2024-02-13T01:04:26.647Z,0.00
2024-02-13T01:05:26.535Z,0.00
2024-02-13T01:06:26.505Z,0.00
2024-02-13T01:07:26.488Z,0.00
2024-02-13T01:08:26.567Z,0.00
2024-02-13T01:09:26.514Z,0.00
2024-02-13T01:10:26.599Z,0.00
2024-02-13T01:11:26.470Z,0.00
2024-02-13T01:12:26.450Z,0.00
2024-02-13T01:13:26.480Z,0.00
2024-02-13T01:14:26.483Z,0.00
2024-02-13T01:15:26.396Z,0.00
2024-02-13T01:16:26.501Z,0.00
2024-02-13T01:17:26.398Z,0.00
2024-02-13T01:18:26.514Z,0.00
2024-02-13T01:19:26.423Z,0.00
2024-02-13T01:20:26.432Z,0.00
2024-02-13T01:21:26.424Z,0.00
2024-02-13T01:22:26.447Z,0.00
2024-02-13T01:23:26.407Z,0.00
2024-02-13T01:24:26.299Z,0.00
2024-02-13T01:25:26.364Z,0.00
2024-02-13T01:26:26.401Z,0.00
2024-02-13T01:27:26.313Z,0.00
2024-02-13T01:28:26.375Z,0.00
2024-02-13T01:29:26.575Z,0.00
2024-02-13T01:30:26.315Z,0.00
2024-02-13T01:31:26.300Z,0.00
2024-02-13T01:32:26.349Z,0.00
2024-02-13T01:33:26.543Z,0.00
2024-02-13T01:34:26.340Z,0.00
2024-02-13T01:35:26.256Z,0.00
2024-02-13T01:36:26.235Z,0.00
2024-02-13T01:37:26.259Z,0.00
2024-02-13T01:38:26.341Z,0.00
2024-02-13T01:39:26.213Z,0.00
2024-02-13T01:40:26.279Z,0.00
2024-02-13T01:41:26.291Z,0.00
2024-02-13T01:42:26.171Z,0.00
2024-02-13T01:43:26.327Z,0.00
2024-02-13T01:44:26.174Z,0.00
2024-02-13T01:45:26.155Z,0.00
2024-02-13T01:46:26.201Z,0.00
2024-02-13T01:47:26.264Z,0.00
2024-02-13T01:48:26.308Z,0.00
2024-02-13T01:49:26.145Z,0.00
2024-02-13T01:50:26.115Z,0.00
2024-02-13T01:51:26.144Z,0.00
2024-02-13T01:52:26.187Z,0.00
2024-02-13T01:53:26.092Z,0.00
2024-02-13T01:54:26.051Z,0.00
2024-02-13T01:55:26.098Z,0.00
2024-02-13T01:56:26.109Z,0.00
2024-02-13T01:57:26.014Z,0.00
2024-02-13T01:58:26.126Z,0.00
2024-02-13T01:59:26.037Z,0.00
2024-02-13T02:00:26.086Z,0.00
2024-02-13T02:01:26.016Z,0.00
2024-02-13T02:02:25.990Z,0.00
2024-02-13T02:03:26.022Z,0.00
2024-02-13T02:04:26.221Z,0.00
2024-02-13T02:05:26.017Z,0.00
2024-02-13T02:06:26.029Z,0.00
2024-02-13T02:07:25.985Z,0.00
2024-02-13T02:08:26.035Z,0.00
2024-02-13T02:09:25.937Z,0.00
2024-02-13T02:10:26.017Z,0.00
2024-02-13T02:11:26.646Z,0.00
2024-02-13T02:12:25.900Z,0.00
2024-02-13T02:13:25.880Z,0.00
2024-02-13T02:14:25.893Z,0.00
2024-02-13T02:15:25.880Z,0.00
2024-02-13T02:16:25.982Z,0.00
2024-02-13T02:17:25.903Z,0.00
2024-02-13T02:18:26.145Z,0.00
2024-02-13T02:19:25.892Z,0.00
2024-02-13T02:20:25.830Z,0.00
2024-02-13T02:21:25.842Z,0.00
2024-02-13T02:22:25.903Z,0.00
2024-02-13T02:23:25.826Z,0.00
2024-02-13T02:24:25.860Z,0.00
2024-02-13T02:25:25.803Z,0.00
2024-02-13T02:26:25.830Z,0.00
2024-02-13T02:27:25.843Z,0.00
2024-02-13T02:28:25.825Z,0.00
2024-02-13T02:29:25.776Z,0.00
2024-02-13T02:30:25.733Z,0.00
2024-02-13T02:31:25.766Z,0.00
2024-02-13T02:32:25.894Z,0.00
2024-02-13T02:33:25.741Z,0.00
2024-02-13T02:34:25.835Z,0.00
2024-02-13T02:35:25.707Z,0.00
2024-02-13T02:36:25.706Z,0.00
2024-02-13T02:37:25.676Z,0.00
2024-02-13T02:38:25.722Z,0.00
2024-02-13T02:39:25.678Z,0.00
2024-02-13T02:40:25.747Z,0.00
2024-02-13T02:41:25.659Z,0.00
2024-02-13T02:42:25.652Z,0.00
2024-02-13T02:43:25.669Z,0.00
2024-02-13T02:44:25.658Z,0.00
2024-02-13T02:45:25.702Z,0.00
2024-02-13T02:46:25.772Z,0.00
2024-02-13T02:47:25.690Z,0.00
2024-02-13T02:48:25.647Z,0.00
2024-02-13T02:49:25.625Z,0.00
2024-02-13T02:50:25.584Z,0.00
2024-02-13T02:51:25.589Z,0.00
2024-02-13T02:52:25.635Z,0.00
2024-02-13T02:53:25.565Z,0.00
2024-02-13T02:54:25.545Z,0.00
2024-02-13T02:55:25.560Z,0.00
2024-02-13T02:56:25.546Z,0.00
2024-02-13T02:57:25.507Z,0.00
2024-02-13T02:58:25.561Z,0.00
2024-02-13T02:59:25.525Z,0.00
2024-02-13T03:00:25.496Z,0.00
2024-02-13T03:01:25.435Z,0.00
2024-02-13T03:02:25.549Z,0.00
2024-02-13T03:03:25.597Z,0.00
2024-02-13T03:04:25.464Z,0.00
2024-02-13T03:05:25.552Z,0.00
2024-02-13T03:06:25.465Z,0.00
2024-02-13T03:07:25.449Z,0.00
2024-02-13T03:08:25.457Z,0.00
2024-02-13T03:09:25.445Z,0.00
2024-02-13T03:10:25.378Z,0.00
2024-02-13T03:11:25.391Z,0.00
2024-02-13T03:12:25.327Z,0.00
2024-02-13T03:13:25.404Z,0.00
2024-02-13T03:14:25.381Z,0.00
2024-02-13T03:15:25.374Z,0.00
2024-02-13T03:16:25.309Z,0.00
2024-02-13T03:17:25.368Z,0.00
2024-02-13T03:18:25.419Z,0.00
2024-02-13T03:19:25.379Z,0.00
2024-02-13T03:20:25.378Z,0.00
2024-02-13T03:21:25.342Z,0.00
2024-02-13T03:22:25.323Z,0.00
2024-02-13T03:23:25.336Z,0.00
2024-02-13T03:24:25.243Z,0.00
2024-02-13T03:25:25.271Z,0.00
2024-02-13T03:26:25.231Z,0.00
2024-02-13T03:27:25.279Z,0.00
2024-02-13T03:28:25.200Z,0.00
2024-02-13T03:29:25.238Z,0.00
2024-02-13T03:30:25.211Z,0.00
2024-02-13T03:31:25.156Z,0.00
2024-02-13T03:32:25.252Z,0.00
2024-02-13T03:33:25.402Z,0.00
2024-02-13T03:34:25.229Z,0.00
2024-02-13T03:35:25.212Z,0.00
2024-02-13T03:36:25.206Z,0.00
2024-02-13T03:37:25.161Z,0.00
2024-02-13T03:38:25.230Z,0.00
2024-02-13T03:39:25.132Z,0.00
2024-02-13T03:40:25.127Z,0.00
2024-02-13T03:41:25.108Z,0.00
2024-02-13T03:42:25.117Z,0.00
2024-02-13T03:43:25.038Z,0.00
2024-02-13T03:44:25.168Z,0.00
2024-02-13T03:45:25.065Z,0.00
2024-02-13T03:46:25.048Z,0.00
2024-02-13T03:47:25.132Z,0.00
2024-02-13T03:48:25.310Z,0.00
2024-02-13T03:49:25.104Z,0.00
2024-02-13T03:50:25.174Z,0.00
2024-02-13T03:51:25.014Z,0.00
2024-02-13T03:52:25.028Z,0.00
2024-02-13T03:53:25.064Z,0.00
2024-02-13T03:54:24.992Z,0.00
2024-02-13T03:55:25.127Z,0.00
2024-02-13T03:56:24.948Z,0.00
2024-02-13T03:57:24.959Z,0.00
2024-02-13T03:58:24.979Z,0.00
2024-02-13T03:59:24.966Z,0.00
2024-02-13T04:00:24.921Z,0.00
2024-02-13T04:01:25.015Z,0.00
2024-02-13T04:02:24.989Z,0.00
2024-02-13T04:03:24.905Z,0.00
2024-02-13T04:04:24.917Z,0.00
2024-02-13T04:05:24.939Z,0.00
2024-02-13T04:06:24.976Z,0.00
2024-02-13T04:07:24.980Z,0.00
2024-02-13T04:08:24.865Z,0.00
2024-02-13T04:09:24.809Z,0.00
2024-02-13T04:10:24.791Z,0.00
2024-02-13T04:11:24.893Z,0.00
2024-02-13T04:12:24.907Z,0.00
2024-02-13T04:13:24.834Z,0.00
2024-02-13T04:14:24.848Z,0.00
2024-02-13T04:15:24.802Z,0.00
2024-02-13T04:16:24.805Z,0.00
2024-02-13T04:17:24.798Z,0.00
2024-02-13T04:18:24.988Z,0.00
2024-02-13T04:19:24.762Z,0.00
2024-02-13T04:20:24.813Z,0.00
2024-02-13T04:21:24.773Z,0.00
2024-02-13T04:22:24.777Z,0.00
2024-02-13T04:23:24.792Z,0.00
2024-02-13T04:24:24.754Z,0.00
2024-02-13T04:25:24.683Z,0.00
2024-02-13T04:26:31.503Z,0.00
2024-02-13T04:27:24.704Z,0.00
2024-02-13T04:28:24.743Z,0.00
2024-02-13T04:29:24.783Z,0.00
2024-02-13T04:30:24.684Z,0.00
2024-02-13T04:31:24.653Z,0.00
2024-02-13T04:32:24.927Z,0.00
2024-02-13T04:33:24.759Z,0.00
2024-02-13T04:34:25.267Z,0.00
2024-02-13T04:35:24.698Z,0.00
2024-02-13T04:36:24.644Z,0.00
2024-02-13T04:37:24.616Z,0.00
2024-02-13T04:38:24.608Z,0.00
2024-02-13T04:39:24.675Z,0.00
2024-02-13T04:40:24.603Z,0.00
2024-02-13T04:41:24.547Z,0.00
2024-02-13T04:42:24.588Z,0.00
2024-02-13T04:43:24.539Z,0.00
2024-02-13T04:44:24.504Z,0.00
2024-02-13T04:45:24.624Z,0.00
2024-02-13T04:46:24.519Z,0.00
2024-02-13T04:47:24.637Z,0.00
2024-02-13T04:48:24.576Z,0.00
2024-02-13T04:49:24.578Z,0.00
2024-02-13T04:50:24.483Z,0.00
2024-02-13T04:51:24.538Z,0.00
2024-02-13T04:52:24.506Z,0.00
2024-02-13T04:53:24.522Z,0.00
2024-02-13T04:54:24.461Z,0.00
2024-02-13T04:55:24.442Z,0.00
2024-02-13T04:56:24.469Z,0.00
2024-02-13T04:57:24.499Z,0.00
2024-02-13T04:58:24.397Z,0.00
2024-02-13T04:59:24.584Z,0.00
2024-02-13T05:00:24.384Z,0.00
2024-02-13T05:01:24.395Z,0.00
2024-02-13T05:02:24.359Z,0.00
2024-02-13T05:03:24.407Z,0.00
2024-02-13T05:04:24.362Z,0.00
2024-02-13T05:05:24.373Z,0.00
2024-02-13T05:06:24.350Z,0.00
2024-02-13T05:07:24.293Z,0.00
2024-02-13T05:08:24.318Z,0.00
2024-02-13T05:09:24.373Z,0.00
2024-02-13T05:10:24.318Z,0.00
2024-02-13T05:11:24.361Z,0.00
2024-02-13T05:12:24.231Z,0.00
2024-02-13T05:13:24.275Z,0.00
2024-02-13T05:14:24.425Z,0.00
2024-02-13T05:15:24.320Z,0.00
2024-02-13T05:16:24.298Z,0.00
2024-02-13T05:17:24.331Z,0.00
2024-02-13T05:18:24.424Z,0.00
2024-02-13T05:19:24.406Z,0.00
2024-02-13T05:20:24.333Z,0.00
2024-02-13T05:21:24.225Z,0.00
2024-02-13T05:22:24.235Z,0.00
2024-02-13T05:23:24.198Z,0.00
2024-02-13T05:24:24.180Z,0.00
2024-02-13T05:25:24.158Z,0.00
2024-02-13T05:26:24.445Z,0.00
2024-02-13T05:27:24.133Z,0.00
2024-02-13T05:28:24.126Z,0.00
2024-02-13T05:29:24.128Z,0.00
2024-02-13T05:30:24.126Z,0.00
2024-02-13T05:31:24.224Z,0.00
2024-02-13T05:32:24.256Z,0.00
2024-02-13T05:33:24.358Z,0.00
2024-02-13T05:34:24.251Z,0.00
2024-02-13T05:35:24.185Z,0.00
2024-02-13T05:36:24.113Z,0.00
2024-02-13T05:37:24.163Z,0.00
2024-02-13T05:38:24.221Z,0.00
2024-02-13T05:39:24.136Z,0.00
2024-02-13T05:40:23.999Z,0.00
2024-02-13T05:41:24.190Z,0.00
2024-02-13T05:42:23.988Z,0.00
2024-02-13T05:43:24.106Z,0.00
2024-02-13T05:44:23.939Z,1.00
2024-02-13T05:45:24.086Z,0.00
2024-02-13T05:46:24.001Z,0.00
2024-02-13T05:47:23.926Z,1.00
2024-02-13T05:48:23.975Z,1.00
2024-02-13T05:49:24.105Z,1.00
2024-02-13T05:50:23.917Z,2.00
2024-02-13T05:51:23.889Z,2.00
2024-02-13T05:52:23.891Z,2.00
2024-02-13T05:53:23.907Z,3.00
2024-02-13T05:54:23.947Z,2.00
2024-02-13T05:55:23.833Z,2.00
2024-02-13T05:56:27.959Z,3.00
2024-02-13T05:57:23.824Z,8.00
2024-02-13T05:58:23.738Z,8.00
2024-02-13T05:59:23.832Z,9.00
2024-02-13T06:00:23.912Z,7.00
2024-02-13T06:01:24.081Z,14.00
2024-02-13T06:02:23.850Z,16.00
2024-02-13T06:03:23.755Z,22.00
2024-02-13T06:04:23.750Z,17.00
2024-02-13T06:05:23.804Z,25.00
2024-02-13T06:06:23.907Z,29.00
2024-02-13T06:07:23.688Z,35.00
2024-02-13T06:08:23.756Z,37.00
2024-02-13T06:09:23.695Z,43.00
2024-02-13T06:10:23.679Z,48.00
2024-02-13T06:11:23.846Z,61.00
2024-02-13T06:12:23.669Z,65.00
2024-02-13T06:13:23.634Z,70.00
2024-02-13T06:14:23.838Z,91.00
2024-02-13T06:15:23.651Z,94.00
2024-02-13T06:16:23.652Z,125.00
2024-02-13T06:17:23.840Z,161.00
2024-02-13T06:18:23.686Z,157.00
2024-02-13T06:19:23.614Z,175.00
2024-02-13T06:20:23.640Z,206.00
2024-02-13T06:21:25.677Z,240.00
2024-02-13T06:22:23.545Z,253.00
2024-02-13T06:23:23.664Z,287.00
2024-02-13T06:24:23.595Z,325.00
2024-02-13T06:25:23.591Z,343.00
2024-02-13T06:26:23.584Z,374.00
2024-02-13T06:27:23.542Z,396.00
2024-02-13T06:28:23.598Z,424.00
2024-02-13T06:29:23.507Z,463.00
2024-02-13T06:30:23.473Z,508.00
2024-02-13T06:31:23.500Z,539.00
2024-02-13T06:32:23.497Z,566.00
2024-02-13T06:33:23.651Z,589.00
2024-02-13T06:34:23.589Z,624.00
2024-02-13T06:35:23.421Z,674.00
2024-02-13T06:36:23.439Z,725.00
2024-02-13T06:37:23.414Z,763.00
2024-02-13T06:38:23.422Z,786.00
2024-02-13T06:39:23.420Z,803.00
2024-02-13T06:40:23.480Z,830.00
2024-02-13T06:41:23.485Z,857.00
2024-02-13T06:42:23.352Z,867.00
2024-02-13T06:43:23.398Z,896.00
2024-02-13T06:44:23.498Z,954.00
2024-02-13T06:45:23.459Z,977.00
2024-02-13T06:46:23.406Z,931.00
2024-02-13T06:47:23.393Z,934.00
2024-02-13T06:48:23.609Z,981.00
2024-02-13T06:49:23.364Z,1099.00
2024-02-13T06:50:23.359Z,980.00
2024-02-13T06:51:23.438Z,943.00
2024-02-13T06:52:23.330Z,996.00
2024-02-13T06:53:23.303Z,1017.00
2024-02-13T06:54:23.283Z,1120.00
2024-02-13T06:55:23.278Z,1022.00
2024-02-13T06:56:23.255Z,901.00
2024-02-13T06:57:23.350Z,877.00
2024-02-13T06:58:23.251Z,933.00
2024-02-13T06:59:23.272Z,945.00
2024-02-13T07:00:23.233Z,1123.00
2024-02-13T07:01:23.247Z,1309.00
2024-02-13T07:02:23.230Z,1423.00
2024-02-13T07:03:23.321Z,1102.00
2024-02-13T07:04:23.272Z,1034.00
2024-02-13T07:05:23.224Z,1206.00
2024-02-13T07:06:37.583Z,1208.00
2024-02-13T07:07:32.742Z,1022.00
2024-02-13T07:08:23.409Z,1283.00
2024-02-13T07:09:23.348Z,832.00
2024-02-13T07:10:23.240Z,1207.00
2024-02-13T07:11:23.151Z,1118.00
2024-02-13T07:12:23.097Z,730.00
2024-02-13T07:13:23.116Z,936.00
2024-02-13T07:14:25.808Z,1283.00
2024-02-13T07:15:23.154Z,1326.00
2024-02-13T07:16:23.097Z,1383.00
2024-02-13T07:17:23.134Z,1618.00
2024-02-13T07:18:23.213Z,1755.00
2024-02-13T07:19:23.222Z,1900.00
2024-02-13T07:20:23.180Z,1728.00
2024-02-13T07:21:25.385Z,1324.00
2024-02-13T07:22:23.017Z,1407.00
2024-02-13T07:23:23.052Z,1557.00
2024-02-13T07:24:22.969Z,2131.00
2024-02-13T07:25:23.050Z,2344.00
2024-02-13T07:26:23.039Z,2235.00
2024-02-13T07:27:22.952Z,2230.00
2024-02-13T07:28:22.952Z,2328.00
2024-02-13T07:29:22.996Z,2542.00
2024-02-13T07:30:22.932Z,2701.00
2024-02-13T07:31:23.020Z,2697.00
2024-02-13T07:32:22.930Z,2773.00
2024-02-13T07:33:23.245Z,3030.00
2024-02-13T07:34:23.045Z,3266.00
2024-02-13T07:35:22.974Z,3289.00
2024-02-13T07:36:22.922Z,3316.00
2024-02-13T07:37:22.983Z,3501.00
2024-02-13T07:38:22.884Z,3565.00
2024-02-13T07:39:22.855Z,4069.00
2024-02-13T07:40:22.852Z,3566.00
2024-02-13T07:41:22.860Z,6273.00
2024-02-13T07:42:22.802Z,7286.00
2024-02-13T07:43:22.923Z,6930.00
2024-02-13T07:44:22.941Z,7345.00
2024-02-13T07:45:22.803Z,6305.00
2024-02-13T07:46:22.800Z,5530.00
2024-02-13T07:47:22.983Z,5847.00
2024-02-13T07:48:23.126Z,5641.00
2024-02-13T07:49:22.778Z,5897.00
2024-02-13T07:50:22.903Z,5795.00
2024-02-13T07:51:22.775Z,5405.00
2024-02-13T07:52:22.720Z,5449.00
2024-02-13T07:53:22.820Z,5692.00
2024-02-13T07:54:22.771Z,6018.00
2024-02-13T07:55:22.720Z,6071.00
2024-02-13T07:56:22.721Z,6295.00
2024-02-13T07:57:22.932Z,5800.00
2024-02-13T07:58:22.665Z,5949.00
2024-02-13T07:59:22.667Z,6128.00
2024-02-13T08:00:22.799Z,5778.00
2024-02-13T08:01:22.669Z,6594.00
2024-02-13T08:02:22.680Z,6161.00
2024-02-13T08:03:22.626Z,6103.00
2024-02-13T08:04:22.639Z,6094.00
2024-02-13T08:05:22.760Z,5608.00
2024-02-13T08:06:22.805Z,5348.00
2024-02-13T08:07:22.580Z,4779.00
2024-02-13T08:08:22.601Z,4499.00
2024-02-13T08:09:22.616Z,4934.00
2024-02-13T08:10:22.569Z,5223.00
2024-02-13T08:11:22.857Z,5339.00
2024-02-13T08:12:22.576Z,5513.00
2024-02-13T08:13:22.604Z,5870.00
2024-02-13T08:14:22.578Z,5703.00
2024-02-13T08:15:22.520Z,5681.00
2024-02-13T08:16:22.525Z,5734.00
2024-02-13T08:17:22.576Z,5777.00
2024-02-13T08:18:22.549Z,6014.00
2024-02-13T08:19:22.481Z,5767.00
2024-02-13T08:20:22.544Z,6085.00
2024-02-13T08:21:22.653Z,6193.00
2024-02-13T08:22:22.551Z,6819.00
2024-02-13T08:23:22.502Z,7075.00
2024-02-13T08:24:22.609Z,7371.00
2024-02-13T08:25:22.448Z,7049.00
2024-02-13T08:26:22.468Z,7278.00
2024-02-13T08:27:22.485Z,7197.00
2024-02-13T08:28:22.423Z,7324.00
2024-02-13T08:29:22.460Z,6647.00
2024-02-13T08:30:22.367Z,6725.00
2024-02-13T08:31:22.399Z,7329.00
2024-02-13T08:32:22.330Z,7785.00
2024-02-13T08:33:22.555Z,7599.00
2024-02-13T08:34:22.534Z,7763.00
2024-02-13T08:35:22.578Z,7649.00
2024-02-13T08:36:22.381Z,7801.00
2024-02-13T08:37:22.351Z,7662.00
2024-02-13T08:38:22.353Z,7878.00
2024-02-13T08:39:22.413Z,7848.00
2024-02-13T08:40:22.289Z,7339.00
2024-02-13T08:41:22.307Z,7586.00
2024-02-13T08:42:22.289Z,7984.00
2024-02-13T08:43:22.287Z,7986.00
2024-02-13T08:44:22.274Z,7531.00
2024-02-13T08:45:24.745Z,7129.00
2024-02-13T08:46:22.254Z,7518.00
2024-02-13T08:47:22.325Z,7617.00
2024-02-13T08:48:22.388Z,7237.00
2024-02-13T08:49:22.603Z,7856.00
2024-02-13T08:50:22.521Z,7216.00
2024-02-13T08:51:22.242Z,7446.00
2024-02-13T08:52:22.164Z,7479.00
2024-02-13T08:53:22.280Z,7539.00
2024-02-13T08:54:22.190Z,7939.00
2024-02-13T08:55:22.151Z,9134.00
2024-02-13T08:56:22.276Z,9378.00
2024-02-13T08:57:22.129Z,8713.00
2024-02-13T08:58:22.143Z,8777.00
2024-02-13T08:59:22.165Z,9578.00
2024-02-13T09:00:22.157Z,10095.00
2024-02-13T09:01:22.190Z,10461.00
2024-02-13T09:02:22.193Z,9856.00
2024-02-13T09:03:22.079Z,9232.00
2024-02-13T09:04:22.254Z,9137.00
2024-02-13T09:05:22.192Z,8819.00
2024-02-13T09:06:22.247Z,9208.00
2024-02-13T09:07:22.139Z,9795.00
2024-02-13T09:08:22.119Z,10291.00
2024-02-13T09:09:22.056Z,12528.00
2024-02-13T09:10:22.037Z,11666.00
2024-02-13T09:11:22.068Z,12219.00
2024-02-13T09:12:21.990Z,12260.00
2024-02-13T09:13:22.091Z,11781.00
2024-02-13T09:14:22.001Z,13020.00
2024-02-13T09:15:21.974Z,13299.00
2024-02-13T09:16:21.974Z,13551.00
2024-02-13T09:17:21.966Z,11772.00
2024-02-13T09:18:22.063Z,11436.00
2024-02-13T09:19:22.060Z,11487.00
2024-02-13T09:20:21.981Z,11415.00
2024-02-13T09:21:21.905Z,10390.00
2024-02-13T09:22:21.912Z,10177.00
2024-02-13T09:23:21.968Z,10571.00
2024-02-13T09:24:21.961Z,11227.00
2024-02-13T09:25:22.003Z,11990.00
2024-02-13T09:26:22.008Z,12126.00
2024-02-13T09:27:21.866Z,12033.00
2024-02-13T09:28:21.831Z,11849.00
2024-02-13T09:29:21.872Z,11666.00
2024-02-13T09:30:21.926Z,12527.00
2024-02-13T09:31:21.807Z,12816.00
2024-02-13T09:32:21.844Z,12131.00
2024-02-13T09:33:22.027Z,12371.00
2024-02-13T09:34:21.925Z,11149.00
2024-02-13T09:35:21.825Z,10057.00
2024-02-13T09:36:21.858Z,8818.00
2024-02-13T09:37:21.758Z,9800.00
2024-02-13T09:38:21.742Z,10708.00
2024-02-13T09:39:21.760Z,11020.00
2024-02-13T09:40:21.691Z,9150.00
2024-02-13T09:41:21.765Z,15438.00
2024-02-13T09:42:21.810Z,12259.00
2024-02-13T09:43:21.685Z,10229.00
2024-02-13T09:44:21.726Z,10872.00
2024-02-13T09:45:21.721Z,11587.00
2024-02-13T09:46:21.702Z,13193.00
2024-02-13T09:47:21.722Z,9278.00
2024-02-13T09:48:21.945Z,16475.00
2024-02-13T09:49:21.758Z,17920.00
2024-02-13T09:50:21.667Z,27599.00
2024-02-13T09:51:21.611Z,17314.00
2024-02-13T09:52:21.706Z,16293.00
2024-02-13T09:53:21.637Z,15499.00
2024-02-13T09:54:21.699Z,13966.00
2024-02-13T09:55:21.580Z,14307.00
2024-02-13T09:56:21.586Z,16921.00
2024-02-13T09:57:21.593Z,15107.00
2024-02-13T09:58:21.580Z,16977.00
2024-02-13T09:59:21.623Z,15776.00
2024-02-13T10:00:21.574Z,13698.00
2024-02-13T10:01:21.561Z,13532.00
2024-02-13T10:02:21.549Z,13466.00
2024-02-13T10:03:21.579Z,14084.00
2024-02-13T10:04:21.565Z,14174.00
2024-02-13T10:05:21.638Z,13767.00
2024-02-13T10:06:21.581Z,12118.00
2024-02-13T10:07:21.506Z,10937.00
2024-02-13T10:08:21.522Z,13091.00
2024-02-13T10:09:21.500Z,17445.00
2024-02-13T10:10:21.471Z,11322.00
2024-02-13T10:11:21.553Z,16024.00
2024-02-13T10:12:21.395Z,12204.00
2024-02-13T10:13:21.407Z,11232.00
2024-02-13T10:14:21.435Z,10537.00
2024-02-13T10:15:21.431Z,10082.00
2024-02-13T10:16:21.443Z,9201.00
2024-02-13T10:17:21.485Z,15633.00
2024-02-13T10:18:21.633Z,10335.00
2024-02-13T10:19:21.432Z,10157.00
2024-02-13T10:20:21.407Z,6641.00
2024-02-13T10:21:21.355Z,19200.00
2024-02-13T10:22:21.344Z,13401.00
2024-02-13T10:23:21.335Z,11453.00
2024-02-13T10:24:21.307Z,15009.00
2024-02-13T10:25:24.406Z,12540.00
2024-02-13T10:26:21.376Z,10159.00
2024-02-13T10:27:21.353Z,8250.00
2024-02-13T10:28:21.252Z,9245.00
2024-02-13T10:29:21.292Z,9019.00
2024-02-13T10:30:21.278Z,6697.00
2024-02-13T10:31:21.305Z,11692.00
2024-02-13T10:32:21.351Z,11248.00
2024-02-13T10:33:21.346Z,7486.00
2024-02-13T10:34:21.204Z,9784.00
2024-02-13T10:35:21.262Z,19330.00
2024-02-13T10:36:21.269Z,22756.00
2024-02-13T10:37:21.228Z,17921.00
2024-02-13T10:38:21.293Z,11245.00
2024-02-13T10:39:21.143Z,21429.00
2024-02-13T10:40:21.219Z,21883.00
2024-02-13T10:41:21.117Z,9932.00
2024-02-13T10:42:21.144Z,4926.00
2024-02-13T10:43:21.105Z,27158.00
2024-02-13T10:44:21.200Z,12732.00
2024-02-13T10:45:21.125Z,18399.00
2024-02-13T10:46:21.059Z,31712.00
2024-02-13T10:47:21.140Z,26109.00
2024-02-13T10:48:21.116Z,10827.00
2024-02-13T10:49:21.151Z,11656.00
2024-02-13T10:50:21.116Z,10908.00
2024-02-13T10:51:21.054Z,3545.00
2024-02-13T10:52:21.048Z,7621.00
2024-02-13T10:53:21.055Z,24826.00
2024-02-13T10:54:20.992Z,3776.00
2024-02-13T10:55:21.095Z,19943.00
2024-02-13T10:56:21.056Z,11009.00
2024-02-13T10:57:20.993Z,3951.00
2024-02-13T10:58:24.502Z,9065.00
2024-02-13T10:59:21.006Z,74497.00
2024-02-13T11:00:21.021Z,61699.00
2024-02-13T11:01:23.818Z,5963.00
2024-02-13T11:02:21.052Z,73456.00
2024-02-13T11:03:21.025Z,59812.00
2024-02-13T11:04:20.926Z,10122.00
2024-02-13T11:05:21.016Z,9907.00
2024-02-13T11:06:20.975Z,12816.00
2024-02-13T11:07:20.962Z,5828.00
2024-02-13T11:08:20.950Z,30150.00
2024-02-13T11:09:20.903Z,14968.00
2024-02-13T11:10:20.876Z,13876.00
2024-02-13T11:11:20.930Z,18809.00
2024-02-13T11:12:20.924Z,17934.00
2024-02-13T11:13:21.834Z,12469.00
2024-02-13T11:14:20.876Z,13716.00
2024-02-13T11:15:20.802Z,13656.00
2024-02-13T11:16:20.809Z,11333.00
2024-02-13T11:17:20.968Z,13476.00
2024-02-13T11:18:20.867Z,9913.00
2024-02-13T11:19:20.789Z,11154.00
2024-02-13T11:20:20.809Z,10269.00
2024-02-13T11:21:20.782Z,9468.00
2024-02-13T11:22:20.786Z,8859.00
2024-02-13T11:23:20.748Z,8865.00
2024-02-13T11:24:20.741Z,9673.00
2024-02-13T11:25:20.736Z,7825.00
2024-02-13T11:26:20.750Z,8957.00
2024-02-13T11:27:28.137Z,6939.00
2024-02-13T11:28:20.819Z,7177.00
2024-02-13T11:29:20.700Z,7807.00
2024-02-13T11:30:20.686Z,9282.00
2024-02-13T11:31:20.672Z,7780.00
2024-02-13T11:32:20.757Z,9313.00
2024-02-13T11:33:20.765Z,8745.00
2024-02-13T11:34:21.062Z,8226.00
2024-02-13T11:35:21.734Z,9255.00
2024-02-13T11:36:20.845Z,9744.00
2024-02-13T11:37:20.610Z,9418.00
2024-02-13T11:38:20.615Z,8884.00
2024-02-13T11:39:20.676Z,8029.00
2024-02-13T11:40:20.581Z,7447.00
2024-02-13T11:41:20.622Z,6729.00
2024-02-13T11:42:20.527Z,6001.00
2024-02-13T11:43:20.552Z,6446.00
2024-02-13T11:44:20.528Z,7966.00
2024-02-13T11:45:20.574Z,8309.00
2024-02-13T11:46:20.474Z,8467.00
2024-02-13T11:47:20.847Z,8593.00
2024-02-13T11:48:20.625Z,8247.00
2024-02-13T11:49:20.772Z,8770.00
2024-02-13T11:50:20.736Z,7558.00
2024-02-13T11:51:20.606Z,9178.00
2024-02-13T11:52:20.458Z,10794.00
2024-02-13T11:53:20.793Z,10726.00
2024-02-13T11:54:20.387Z,9314.00
2024-02-13T11:55:20.434Z,9222.00
2024-02-13T11:56:20.508Z,10020.00
2024-02-13T11:57:20.494Z,10386.00
2024-02-13T11:58:20.519Z,11401.00
2024-02-13T11:59:20.361Z,9677.00
2024-02-13T12:00:21.177Z,9090.00
2024-02-13T12:01:20.390Z,5766.00
2024-02-13T12:02:20.408Z,61278.00
2024-02-13T12:03:20.371Z,16298.00
2024-02-13T12:04:20.353Z,14279.00
2024-02-13T12:05:20.930Z,13245.00
2024-02-13T12:06:20.319Z,4905.00
2024-02-13T12:07:20.439Z,26891.00
2024-02-13T12:08:20.339Z,7208.00
2024-02-13T12:09:20.250Z,72009.00
2024-02-13T12:10:20.323Z,61515.00
2024-02-13T12:11:20.348Z,13778.00
2024-02-13T12:12:20.266Z,14608.00
2024-02-13T12:13:20.251Z,14088.00
2024-02-13T12:14:20.335Z,9672.00
2024-02-13T12:15:20.218Z,18428.00
2024-02-13T12:16:20.244Z,14133.00
2024-02-13T12:17:20.220Z,12405.00
2024-02-13T12:18:20.334Z,13037.00
2024-02-13T12:19:20.282Z,12960.00
2024-02-13T12:20:20.408Z,12053.00
2024-02-13T12:21:20.257Z,11963.00
2024-02-13T12:22:20.196Z,12806.00
2024-02-13T12:23:20.257Z,13180.00
2024-02-13T12:24:20.169Z,13957.00
2024-02-13T12:25:20.244Z,12718.00
2024-02-13T12:26:20.194Z,13383.00
2024-02-13T12:27:20.210Z,11924.00
2024-02-13T12:28:20.130Z,10555.00
2024-02-13T12:29:20.139Z,8940.00
2024-02-13T12:30:20.078Z,9762.00
2024-02-13T12:31:20.181Z,4909.00
2024-02-13T12:32:20.137Z,24566.00
2024-02-13T12:33:20.208Z,11035.00
2024-02-13T12:34:20.445Z,12309.00
2024-02-13T12:35:20.075Z,10755.00
2024-02-13T12:36:20.488Z,9423.00